sensor_id;sensor_type;location;lat;lon;timestamp;temperature;humidity
19692;DHT22;42748;50.016;19.890;2023-02-28T00:01:21;0.70;99.90
19692;DHT22;42748;50.016;19.890;2023-02-28T00:03:48;0.60;99.90
19692;DHT22;42748;50.016;19.890;2023-02-28T00:06:16;0.70;99.90
19692;DHT22;42748;50.016;19.890;2023-02-28T00:08:43;0.70;99.90
19692;DHT22;42748;50.016;19.890;2023-02-28T00:11:13;0.70;99.90
19692;DHT22;42748;50.016;19.890;2023-02-28T00:13:43;0.70;99.90
19692;DHT22;42748;50.016;19.890;2023-02-28T00:16:16;0.60;99.90
19692;DHT22;42748;50.016;19.890;2023-02-28T00:18:44;0.60;99.90
19692;DHT22;42748;50.016;19.890;2023-02-28T00:21:11;0.60;99.90
19692;DHT22;42748;50.016;19.890;2023-02-28T00:23:38;0.60;99.90
19692;DHT22;42748;50.016;19.890;2023-02-28T00:26:05;0.60;99.90
19692;DHT22;42748;50.016;19.890;2023-02-28T00:28:32;0.50;99.90
19692;DHT22;42748;50.016;19.890;2023-02-28T00:31:00;0.50;99.90
19692;DHT22;42748;50.016;19.890;2023-02-28T00:33:29;0.50;99.90
19692;DHT22;42748;50.016;19.890;2023-02-28T00:36:07;0.50;99.90
19692;DHT22;42748;50.016;19.890;2023-02-28T00:38:35;0.50;99.90
19692;DHT22;42748;50.016;19.890;2023-02-28T00:41:03;0.50;99.90
19692;DHT22;42748;50.016;19.890;2023-02-28T00:43:36;0.50;99.90
19692;DHT22;42748;50.016;19.890;2023-02-28T00:46:04;0.50;99.90
19692;DHT22;42748;50.016;19.890;2023-02-28T00:48:32;0.50;99.90
19692;DHT22;42748;50.016;19.890;2023-02-28T00:50:59;0.40;99.90
19692;DHT22;42748;50.016;19.890;2023-02-28T00:53:26;0.40;99.90
19692;DHT22;42748;50.016;19.890;2023-02-28T00:55:56;0.40;99.90
19692;DHT22;42748;50.016;19.890;2023-02-28T00:58:25;0.30;99.90
19692;DHT22;42748;50.016;19.890;2023-02-28T01:00:52;0.30;99.90
19692;DHT22;42748;50.016;19.890;2023-02-28T01:03:21;0.30;99.90
19692;DHT22;42748;50.016;19.890;2023-02-28T01:05:49;0.30;99.90
19692;DHT22;42748;50.016;19.890;2023-02-28T01:08:17;0.20;99.90
19692;DHT22;42748;50.016;19.890;2023-02-28T01:10:44;0.20;99.90
19692;DHT22;42748;50.016;19.890;2023-02-28T01:13:11;0.20;99.90
19692;DHT22;42748;50.016;19.890;2023-02-28T01:15:45;0.20;99.90
19692;DHT22;42748;50.016;19.890;2023-02-28T01:18:13;0.10;99.90
19692;DHT22;42748;50.016;19.890;2023-02-28T01:20:40;0.20;99.90
19692;DHT22;42748;50.016;19.890;2023-02-28T01:23:08;0.20;99.90
19692;DHT22;42748;50.016;19.890;2023-02-28T01:25:36;0.10;99.90
19692;DHT22;42748;50.016;19.890;2023-02-28T01:28:04;0.10;99.90
19692;DHT22;42748;50.016;19.890;2023-02-28T01:30:33;0.10;99.90
19692;DHT22;42748;50.016;19.890;2023-02-28T01:33:00;0.10;99.90
19692;DHT22;42748;50.016;19.890;2023-02-28T01:35:28;0.10;99.90
19692;DHT22;42748;50.016;19.890;2023-02-28T01:37:55;0.00;99.90
19692;DHT22;42748;50.016;19.890;2023-02-28T01:40:30;0.00;99.90
19692;DHT22;42748;50.016;19.890;2023-02-28T01:42:57;0.10;99.90
19692;DHT22;42748;50.016;19.890;2023-02-28T01:45:31;0.10;99.90
19692;DHT22;42748;50.016;19.890;2023-02-28T01:48:04;0.10;99.90
19692;DHT22;42748;50.016;19.890;2023-02-28T01:50:36;0.10;99.90
19692;DHT22;42748;50.016;19.890;2023-02-28T01:53:07;0.10;99.90
19692;DHT22;42748;50.016;19.890;2023-02-28T01:55:36;0.10;99.90
19692;DHT22;42748;50.016;19.890;2023-02-28T01:58:05;0.10;99.90
19692;DHT22;42748;50.016;19.890;2023-02-28T02:00:33;0.00;99.90
19692;DHT22;42748;50.016;19.890;2023-02-28T02:03:06;0.00;99.90
19692;DHT22;42748;50.016;19.890;2023-02-28T02:05:38;0.00;99.90
19692;DHT22;42748;50.016;19.890;2023-02-28T02:08:15;-0.10;99.90
19692;DHT22;42748;50.016;19.890;2023-02-28T02:10:46;-0.10;99.90
19692;DHT22;42748;50.016;19.890;2023-02-28T02:13:48;-0.10;99.90
19692;DHT22;42748;50.016;19.890;2023-02-28T02:17:09;-0.10;99.90
19692;DHT22;42748;50.016;19.890;2023-02-28T02:25:03;-0.20;99.90
19692;DHT22;42748;50.016;19.890;2023-02-28T02:33:21;-0.30;99.90
19692;DHT22;42748;50.016;19.890;2023-02-28T02:38:36;-0.30;99.90
19692;DHT22;42748;50.016;19.890;2023-02-28T02:46:41;-0.40;99.90
19692;DHT22;42748;50.016;19.890;2023-02-28T02:49:21;-0.40;99.90
19692;DHT22;42748;50.016;19.890;2023-02-28T02:51:51;-0.40;99.90
19692;DHT22;42748;50.016;19.890;2023-02-28T02:54:23;-0.50;99.90
19692;DHT22;42748;50.016;19.890;2023-02-28T02:56:58;-0.50;99.90
19692;DHT22;42748;50.016;19.890;2023-02-28T02:59:28;-0.60;99.90
19692;DHT22;42748;50.016;19.890;2023-02-28T03:02:00;-0.60;99.90
19692;DHT22;42748;50.016;19.890;2023-02-28T03:04:33;-0.60;99.90
19692;DHT22;42748;50.016;19.890;2023-02-28T03:07:01;-0.60;99.90
19692;DHT22;42748;50.016;19.890;2023-02-28T03:09:28;-0.60;99.90
19692;DHT22;42748;50.016;19.890;2023-02-28T03:11:56;-0.60;99.90
19692;DHT22;42748;50.016;19.890;2023-02-28T03:14:36;-0.70;99.90
19692;DHT22;42748;50.016;19.890;2023-02-28T03:25:52;-0.80;99.90
19692;DHT22;42748;50.016;19.890;2023-02-28T03:31:38;-0.80;99.90
19692;DHT22;42748;50.016;19.890;2023-02-28T03:34:34;-0.80;99.90
19692;DHT22;42748;50.016;19.890;2023-02-28T03:37:04;-0.90;99.90
19692;DHT22;42748;50.016;19.890;2023-02-28T03:39:39;-0.90;99.90
19692;DHT22;42748;50.016;19.890;2023-02-28T03:42:22;-0.90;99.90
19692;DHT22;42748;50.016;19.890;2023-02-28T03:44:59;-0.90;99.90
19692;DHT22;42748;50.016;19.890;2023-02-28T03:47:32;-1.00;99.90
19692;DHT22;42748;50.016;19.890;2023-02-28T03:50:23;-1.00;99.90
19692;DHT22;42748;50.016;19.890;2023-02-28T03:52:57;-1.00;99.90
19692;DHT22;42748;50.016;19.890;2023-02-28T03:55:42;-1.00;99.90
19692;DHT22;42748;50.016;19.890;2023-02-28T04:01:36;-1.10;99.90
19692;DHT22;42748;50.016;19.890;2023-02-28T04:04:05;-1.10;99.90
19692;DHT22;42748;50.016;19.890;2023-02-28T04:06:33;-1.20;99.90
19692;DHT22;42748;50.016;19.890;2023-02-28T04:09:01;-1.20;99.90
19692;DHT22;42748;50.016;19.890;2023-02-28T04:11:35;-1.10;99.90
19692;DHT22;42748;50.016;19.890;2023-02-28T04:14:04;-1.10;99.90
19692;DHT22;42748;50.016;19.890;2023-02-28T04:16:32;-1.20;99.90
19692;DHT22;42748;50.016;19.890;2023-02-28T04:19:05;-1.20;99.90
19692;DHT22;42748;50.016;19.890;2023-02-28T04:21:44;-1.20;99.90
19692;DHT22;42748;50.016;19.890;2023-02-28T04:24:17;-1.20;99.90
19692;DHT22;42748;50.016;19.890;2023-02-28T04:26:50;-1.20;99.90
19692;DHT22;42748;50.016;19.890;2023-02-28T04:29:28;-1.30;99.90
19692;DHT22;42748;50.016;19.890;2023-02-28T04:31:56;-1.30;99.90
19692;DHT22;42748;50.016;19.890;2023-02-28T04:34:26;-1.30;99.90
19692;DHT22;42748;50.016;19.890;2023-02-28T04:36:54;-1.20;99.90
19692;DHT22;42748;50.016;19.890;2023-02-28T04:39:38;-1.20;99.90
19692;DHT22;42748;50.016;19.890;2023-02-28T04:42:05;-1.20;99.90
19692;DHT22;42748;50.016;19.890;2023-02-28T04:44:33;-1.30;99.90
19692;DHT22;42748;50.016;19.890;2023-02-28T04:47:00;-1.30;99.90
19692;DHT22;42748;50.016;19.890;2023-02-28T04:49:27;-1.30;99.90
19692;DHT22;42748;50.016;19.890;2023-02-28T04:51:54;-1.30;99.90
19692;DHT22;42748;50.016;19.890;2023-02-28T04:54:22;-1.30;99.90
19692;DHT22;42748;50.016;19.890;2023-02-28T04:56:49;-1.40;99.90
19692;DHT22;42748;50.016;19.890;2023-02-28T04:59:17;-1.30;99.90
19692;DHT22;42748;50.016;19.890;2023-02-28T05:01:48;-1.30;99.90
19692;DHT22;42748;50.016;19.890;2023-02-28T05:04:15;-1.30;99.90
19692;DHT22;42748;50.016;19.890;2023-02-28T05:06:42;-1.30;99.90
19692;DHT22;42748;50.016;19.890;2023-02-28T05:09:10;-1.40;99.90
19692;DHT22;42748;50.016;19.890;2023-02-28T05:11:40;-1.40;99.90
19692;DHT22;42748;50.016;19.890;2023-02-28T05:14:12;-1.40;99.90
19692;DHT22;42748;50.016;19.890;2023-02-28T05:16:40;-1.40;99.90
19692;DHT22;42748;50.016;19.890;2023-02-28T05:19:07;-1.40;99.90
19692;DHT22;42748;50.016;19.890;2023-02-28T05:21:38;-1.40;99.90
19692;DHT22;42748;50.016;19.890;2023-02-28T05:24:11;-1.40;99.90
19692;DHT22;42748;50.016;19.890;2023-02-28T05:26:42;-1.40;99.90
19692;DHT22;42748;50.016;19.890;2023-02-28T05:29:10;-1.40;99.90
19692;DHT22;42748;50.016;19.890;2023-02-28T05:31:37;-1.40;99.90
19692;DHT22;42748;50.016;19.890;2023-02-28T05:34:05;-1.40;99.90
19692;DHT22;42748;50.016;19.890;2023-02-28T05:36:32;-1.40;99.90
19692;DHT22;42748;50.016;19.890;2023-02-28T05:38:59;-1.40;99.90
19692;DHT22;42748;50.016;19.890;2023-02-28T05:41:26;-1.30;99.90
19692;DHT22;42748;50.016;19.890;2023-02-28T05:43:54;-1.30;99.90
19692;DHT22;42748;50.016;19.890;2023-02-28T05:46:21;-1.30;99.90
19692;DHT22;42748;50.016;19.890;2023-02-28T05:48:49;-1.30;99.90
19692;DHT22;42748;50.016;19.890;2023-02-28T05:51:16;-1.30;99.90
19692;DHT22;42748;50.016;19.890;2023-02-28T05:53:44;-1.30;99.90
19692;DHT22;42748;50.016;19.890;2023-02-28T05:56:11;-1.20;99.90
19692;DHT22;42748;50.016;19.890;2023-02-28T05:58:38;-1.20;99.90
19692;DHT22;42748;50.016;19.890;2023-02-28T06:01:36;-1.20;99.90
19692;DHT22;42748;50.016;19.890;2023-02-28T06:04:05;-1.10;99.90
19692;DHT22;42748;50.016;19.890;2023-02-28T06:06:32;-1.10;99.90
19692;DHT22;42748;50.016;19.890;2023-02-28T06:09:04;-1.00;99.90
19692;DHT22;42748;50.016;19.890;2023-02-28T06:11:32;-1.00;99.90
19692;DHT22;42748;50.016;19.890;2023-02-28T06:14:00;-1.00;99.90
19692;DHT22;42748;50.016;19.890;2023-02-28T06:16:29;-0.90;99.90
19692;DHT22;42748;50.016;19.890;2023-02-28T06:19:01;-0.80;99.90
19692;DHT22;42748;50.016;19.890;2023-02-28T06:21:29;-0.80;99.90
19692;DHT22;42748;50.016;19.890;2023-02-28T06:23:57;-0.70;99.90
19692;DHT22;42748;50.016;19.890;2023-02-28T06:26:25;-0.60;99.90
19692;DHT22;42748;50.016;19.890;2023-02-28T06:28:52;-0.60;99.90
19692;DHT22;42748;50.016;19.890;2023-02-28T06:31:20;-0.60;99.90
19692;DHT22;42748;50.016;19.890;2023-02-28T06:33:48;-0.50;99.90
19692;DHT22;42748;50.016;19.890;2023-02-28T06:36:16;-0.50;99.90
19692;DHT22;42748;50.016;19.890;2023-02-28T06:38:43;-0.50;99.90
19692;DHT22;42748;50.016;19.890;2023-02-28T06:41:11;-0.60;99.90
19692;DHT22;42748;50.016;19.890;2023-02-28T06:43:41;-0.60;99.90
19692;DHT22;42748;50.016;19.890;2023-02-28T06:46:12;-0.70;99.90
19692;DHT22;42748;50.016;19.890;2023-02-28T06:48:42;-0.70;99.90
19692;DHT22;42748;50.016;19.890;2023-02-28T06:51:15;-0.70;99.90
19692;DHT22;42748;50.016;19.890;2023-02-28T06:53:42;-0.70;99.90
19692;DHT22;42748;50.016;19.890;2023-02-28T06:56:14;-0.70;99.90
19692;DHT22;42748;50.016;19.890;2023-02-28T06:58:45;-0.70;99.90
19692;DHT22;42748;50.016;19.890;2023-02-28T07:01:13;-0.80;99.90
19692;DHT22;42748;50.016;19.890;2023-02-28T07:03:40;-0.70;99.90
19692;DHT22;42748;50.016;19.890;2023-02-28T07:06:07;-0.60;99.90
19692;DHT22;42748;50.016;19.890;2023-02-28T07:08:35;-0.50;99.90
19692;DHT22;42748;50.016;19.890;2023-02-28T07:11:03;-0.50;99.90
19692;DHT22;42748;50.016;19.890;2023-02-28T07:13:30;-0.50;99.90
19692;DHT22;42748;50.016;19.890;2023-02-28T07:16:00;-0.60;99.90
19692;DHT22;42748;50.016;19.890;2023-02-28T07:18:28;-0.60;99.90
19692;DHT22;42748;50.016;19.890;2023-02-28T07:20:55;-0.50;99.90
19692;DHT22;42748;50.016;19.890;2023-02-28T07:23:22;-0.60;99.90
19692;DHT22;42748;50.016;19.890;2023-02-28T07:25:50;-0.50;99.90
19692;DHT22;42748;50.016;19.890;2023-02-28T07:28:18;-0.50;99.90
19692;DHT22;42748;50.016;19.890;2023-02-28T07:30:45;-0.40;99.90
19692;DHT22;42748;50.016;19.890;2023-02-28T07:33:12;-0.30;99.90
19692;DHT22;42748;50.016;19.890;2023-02-28T07:35:39;-0.40;99.90
19692;DHT22;42748;50.016;19.890;2023-02-28T07:38:06;-0.30;99.90
19692;DHT22;42748;50.016;19.890;2023-02-28T07:40:35;-0.20;99.90
19692;DHT22;42748;50.016;19.890;2023-02-28T07:43:03;-0.10;99.90
19692;DHT22;42748;50.016;19.890;2023-02-28T07:45:31;0.00;99.90
19692;DHT22;42748;50.016;19.890;2023-02-28T07:48:01;0.10;99.90
19692;DHT22;42748;50.016;19.890;2023-02-28T07:50:29;0.20;99.90
19692;DHT22;42748;50.016;19.890;2023-02-28T07:53:00;0.30;99.90
19692;DHT22;42748;50.016;19.890;2023-02-28T07:55:27;0.50;99.90
19692;DHT22;42748;50.016;19.890;2023-02-28T07:57:57;0.50;99.90
19692;DHT22;42748;50.016;19.890;2023-02-28T08:00:25;0.60;99.90
19692;DHT22;42748;50.016;19.890;2023-02-28T08:02:52;0.70;99.90
19692;DHT22;42748;50.016;19.890;2023-02-28T08:05:19;0.80;99.90
19692;DHT22;42748;50.016;19.890;2023-02-28T08:07:49;1.00;99.90
19692;DHT22;42748;50.016;19.890;2023-02-28T08:10:17;0.90;99.90
19692;DHT22;42748;50.016;19.890;2023-02-28T08:12:44;0.70;99.90
19692;DHT22;42748;50.016;19.890;2023-02-28T08:15:11;1.00;99.90
19692;DHT22;42748;50.016;19.890;2023-02-28T08:17:38;1.20;99.90
19692;DHT22;42748;50.016;19.890;2023-02-28T08:20:06;1.60;99.90
19692;DHT22;42748;50.016;19.890;2023-02-28T08:22:33;1.60;99.90
19692;DHT22;42748;50.016;19.890;2023-02-28T08:25:00;1.40;99.90
19692;DHT22;42748;50.016;19.890;2023-02-28T08:27:27;1.30;99.90
19692;DHT22;42748;50.016;19.890;2023-02-28T08:29:54;1.20;99.90
19692;DHT22;42748;50.016;19.890;2023-02-28T08:32:21;1.50;99.90
19692;DHT22;42748;50.016;19.890;2023-02-28T08:34:56;1.90;99.90
19692;DHT22;42748;50.016;19.890;2023-02-28T08:37:23;1.90;99.90
19692;DHT22;42748;50.016;19.890;2023-02-28T08:39:50;2.20;99.90
19692;DHT22;42748;50.016;19.890;2023-02-28T08:42:22;2.50;99.90
19692;DHT22;42748;50.016;19.890;2023-02-28T08:44:49;2.80;99.90
19692;DHT22;42748;50.016;19.890;2023-02-28T08:47:16;2.70;99.90
19692;DHT22;42748;50.016;19.890;2023-02-28T08:49:43;2.70;99.90
19692;DHT22;42748;50.016;19.890;2023-02-28T08:52:10;2.70;99.90
19692;DHT22;42748;50.016;19.890;2023-02-28T08:54:37;3.60;99.90
19692;DHT22;42748;50.016;19.890;2023-02-28T08:57:05;4.30;99.90
19692;DHT22;42748;50.016;19.890;2023-02-28T08:59:32;4.90;93.00
19692;DHT22;42748;50.016;19.890;2023-02-28T09:01:59;5.30;90.20
19692;DHT22;42748;50.016;19.890;2023-02-28T09:04:26;5.30;81.50
19692;DHT22;42748;50.016;19.890;2023-02-28T09:06:53;5.80;79.80
19692;DHT22;42748;50.016;19.890;2023-02-28T09:09:20;6.10;77.90
19692;DHT22;42748;50.016;19.890;2023-02-28T09:11:47;6.10;75.90
19692;DHT22;42748;50.016;19.890;2023-02-28T09:14:14;6.40;73.40
19692;DHT22;42748;50.016;19.890;2023-02-28T09:16:41;6.30;73.30
19692;DHT22;42748;50.016;19.890;2023-02-28T09:19:11;6.20;74.90
19692;DHT22;42748;50.016;19.890;2023-02-28T09:21:39;6.10;74.50
19692;DHT22;42748;50.016;19.890;2023-02-28T09:24:06;6.00;74.90
19692;DHT22;42748;50.016;19.890;2023-02-28T09:26:34;5.80;78.00
19692;DHT22;42748;50.016;19.890;2023-02-28T09:29:13;5.70;79.20
19692;DHT22;42748;50.016;19.890;2023-02-28T09:31:41;5.80;75.30
19692;DHT22;42748;50.016;19.890;2023-02-28T09:34:08;5.80;76.70
19692;DHT22;42748;50.016;19.890;2023-02-28T09:36:35;5.10;79.20
19692;DHT22;42748;50.016;19.890;2023-02-28T09:39:12;5.50;80.90
19692;DHT22;42748;50.016;19.890;2023-02-28T09:41:44;6.10;78.00
19692;DHT22;42748;50.016;19.890;2023-02-28T09:46:56;6.50;70.70
19692;DHT22;42748;50.016;19.890;2023-02-28T09:49:34;6.20;68.70
19692;DHT22;42748;50.016;19.890;2023-02-28T09:52:10;6.70;68.50
19692;DHT22;42748;50.016;19.890;2023-02-28T09:54:38;6.50;67.10
19692;DHT22;42748;50.016;19.890;2023-02-28T09:57:39;6.50;68.30
19692;DHT22;42748;50.016;19.890;2023-02-28T10:00:24;6.50;69.50
19692;DHT22;42748;50.016;19.890;2023-02-28T10:05:56;6.70;64.90
19692;DHT22;42748;50.016;19.890;2023-02-28T10:08:32;6.20;69.90
19692;DHT22;42748;50.016;19.890;2023-02-28T10:11:02;6.30;68.30
19692;DHT22;42748;50.016;19.890;2023-02-28T10:13:43;6.30;68.40
19692;DHT22;42748;50.016;19.890;2023-02-28T10:16:15;6.40;70.50
19692;DHT22;42748;50.016;19.890;2023-02-28T10:18:48;6.60;69.20
19692;DHT22;42748;50.016;19.890;2023-02-28T10:24:02;6.50;69.30
19692;DHT22;42748;50.016;19.890;2023-02-28T10:26:31;6.50;68.40
19692;DHT22;42748;50.016;19.890;2023-02-28T10:28:59;6.10;68.00
19692;DHT22;42748;50.016;19.890;2023-02-28T10:31:26;6.20;71.20
19692;DHT22;42748;50.016;19.890;2023-02-28T10:33:53;6.00;72.90
19692;DHT22;42748;50.016;19.890;2023-02-28T10:36:21;5.70;74.20
19692;DHT22;42748;50.016;19.890;2023-02-28T10:38:49;5.80;76.80
19692;DHT22;42748;50.016;19.890;2023-02-28T10:41:31;5.80;77.30
19692;DHT22;42748;50.016;19.890;2023-02-28T10:44:21;5.90;77.80
19692;DHT22;42748;50.016;19.890;2023-02-28T10:46:50;5.80;80.70
19692;DHT22;42748;50.016;19.890;2023-02-28T10:49:24;6.20;75.70
19692;DHT22;42748;50.016;19.890;2023-02-28T10:52:02;6.40;74.40
19692;DHT22;42748;50.016;19.890;2023-02-28T10:54:32;5.90;76.90
19692;DHT22;42748;50.016;19.890;2023-02-28T10:59:33;6.00;78.90
19692;DHT22;42748;50.016;19.890;2023-02-28T11:02:00;5.80;80.40
19692;DHT22;42748;50.016;19.890;2023-02-28T11:07:18;6.30;73.50
19692;DHT22;42748;50.016;19.890;2023-02-28T11:09:55;5.50;79.30
19692;DHT22;42748;50.016;19.890;2023-02-28T11:12:26;5.80;77.50
19692;DHT22;42748;50.016;19.890;2023-02-28T11:14:58;5.60;80.50
19692;DHT22;42748;50.016;19.890;2023-02-28T11:17:29;5.50;82.20
19692;DHT22;42748;50.016;19.890;2023-02-28T11:20:02;5.50;84.70
19692;DHT22;42748;50.016;19.890;2023-02-28T11:22:35;5.50;86.30
19692;DHT22;42748;50.016;19.890;2023-02-28T11:25:20;5.50;84.10
19692;DHT22;42748;50.016;19.890;2023-02-28T11:27:51;5.80;84.10
19692;DHT22;42748;50.016;19.890;2023-02-28T11:30:25;5.70;87.60
19692;DHT22;42748;50.016;19.890;2023-02-28T11:32:52;5.50;85.10
19692;DHT22;42748;50.016;19.890;2023-02-28T11:35:33;5.10;91.30
19692;DHT22;42748;50.016;19.890;2023-02-28T11:38:02;5.30;99.90
19692;DHT22;42748;50.016;19.890;2023-02-28T11:40:43;5.20;90.60
19692;DHT22;42748;50.016;19.890;2023-02-28T11:51:32;5.00;91.20
19692;DHT22;42748;50.016;19.890;2023-02-28T11:54:21;4.90;99.90
19692;DHT22;42748;50.016;19.890;2023-02-28T11:57:17;4.30;95.10
19692;DHT22;42748;50.016;19.890;2023-02-28T12:02:24;4.50;96.00
19692;DHT22;42748;50.016;19.890;2023-02-28T12:17:00;4.60;99.00
19692;DHT22;42748;50.016;19.890;2023-02-28T12:27:33;4.10;99.90
19692;DHT22;42748;50.016;19.890;2023-02-28T12:30:18;4.10;99.90
19692;DHT22;42748;50.016;19.890;2023-02-28T12:33:12;4.10;99.90
19692;DHT22;42748;50.016;19.890;2023-02-28T12:36:18;4.10;99.90
19692;DHT22;42748;50.016;19.890;2023-02-28T12:38:44;3.90;99.90
19692;DHT22;42748;50.016;19.890;2023-02-28T12:44:20;4.20;99.90
19692;DHT22;42748;50.016;19.890;2023-02-28T12:46:55;4.20;99.90
19692;DHT22;42748;50.016;19.890;2023-02-28T12:52:58;4.00;99.90
19692;DHT22;42748;50.016;19.890;2023-02-28T12:55:38;4.00;99.90
19692;DHT22;42748;50.016;19.890;2023-02-28T12:58:16;4.00;99.90
19692;DHT22;42748;50.016;19.890;2023-02-28T13:01:05;4.10;99.90
19692;DHT22;42748;50.016;19.890;2023-02-28T13:09:29;3.90;99.90
19692;DHT22;42748;50.016;19.890;2023-02-28T13:11:57;4.00;99.90
19692;DHT22;42748;50.016;19.890;2023-02-28T13:19:31;4.00;99.90
19692;DHT22;42748;50.016;19.890;2023-02-28T13:21:59;4.00;99.90
19692;DHT22;42748;50.016;19.890;2023-02-28T13:24:46;4.00;99.90
19692;DHT22;42748;50.016;19.890;2023-02-28T13:29:42;3.80;99.90
19692;DHT22;42748;50.016;19.890;2023-02-28T13:39:58;3.70;99.90
19692;DHT22;42748;50.016;19.890;2023-02-28T13:42:34;3.70;99.90
19692;DHT22;42748;50.016;19.890;2023-02-28T13:47:35;3.80;99.90
19692;DHT22;42748;50.016;19.890;2023-02-28T13:58:47;3.60;99.90
19692;DHT22;42748;50.016;19.890;2023-02-28T14:01:34;3.60;99.90
19692;DHT22;42748;50.016;19.890;2023-02-28T14:06:54;3.60;99.90
19692;DHT22;42748;50.016;19.890;2023-02-28T14:09:31;3.60;99.90
19692;DHT22;42748;50.016;19.890;2023-02-28T14:15:44;3.60;99.90
19692;DHT22;42748;50.016;19.890;2023-02-28T14:26:57;3.60;99.90
19692;DHT22;42748;50.016;19.890;2023-02-28T14:32:47;3.50;99.90
19692;DHT22;42748;50.016;19.890;2023-02-28T14:38:18;3.70;99.90
19692;DHT22;42748;50.016;19.890;2023-02-28T14:40:49;3.70;99.90
19692;DHT22;42748;50.016;19.890;2023-02-28T14:43:24;3.70;99.90
19692;DHT22;42748;50.016;19.890;2023-02-28T14:46:01;3.60;99.90
19692;DHT22;42748;50.016;19.890;2023-02-28T14:48:29;3.60;99.90
19692;DHT22;42748;50.016;19.890;2023-02-28T14:51:00;3.60;99.90
19692;DHT22;42748;50.016;19.890;2023-02-28T14:53:29;3.50;99.90
19692;DHT22;42748;50.016;19.890;2023-02-28T14:55:57;3.60;99.90
19692;DHT22;42748;50.016;19.890;2023-02-28T14:58:33;3.50;99.90
19692;DHT22;42748;50.016;19.890;2023-02-28T15:01:02;3.50;99.90
19692;DHT22;42748;50.016;19.890;2023-02-28T15:05:59;3.40;99.90
19692;DHT22;42748;50.016;19.890;2023-02-28T15:08:26;3.40;99.90
19692;DHT22;42748;50.016;19.890;2023-02-28T15:10:59;3.30;99.90
19692;DHT22;42748;50.016;19.890;2023-02-28T15:16:11;3.30;99.90
19692;DHT22;42748;50.016;19.890;2023-02-28T15:19:16;3.20;99.90
19692;DHT22;42748;50.016;19.890;2023-02-28T15:21:50;3.00;99.90
19692;DHT22;42748;50.016;19.890;2023-02-28T15:24:38;3.10;99.90
19692;DHT22;42748;50.016;19.890;2023-02-28T15:27:44;3.10;99.90
19692;DHT22;42748;50.016;19.890;2023-02-28T15:30:11;3.10;99.90
19692;DHT22;42748;50.016;19.890;2023-02-28T15:32:41;3.10;99.90
19692;DHT22;42748;50.016;19.890;2023-02-28T15:35:28;3.00;99.90
19692;DHT22;42748;50.016;19.890;2023-02-28T15:38:00;3.00;99.90
19692;DHT22;42748;50.016;19.890;2023-02-28T15:40:41;3.10;99.90
19692;DHT22;42748;50.016;19.890;2023-02-28T15:43:16;3.00;99.90
19692;DHT22;42748;50.016;19.890;2023-02-28T15:45:45;3.10;99.90
19692;DHT22;42748;50.016;19.890;2023-02-28T15:50:48;3.00;99.90
19692;DHT22;42748;50.016;19.890;2023-02-28T15:53:23;2.90;99.90
19692;DHT22;42748;50.016;19.890;2023-02-28T15:56:06;2.80;99.90
19692;DHT22;42748;50.016;19.890;2023-02-28T15:58:35;2.80;99.90
19692;DHT22;42748;50.016;19.890;2023-02-28T16:01:30;2.70;99.90
19692;DHT22;42748;50.016;19.890;2023-02-28T16:04:05;2.70;99.90
19692;DHT22;42748;50.016;19.890;2023-02-28T16:09:08;2.60;99.90
19692;DHT22;42748;50.016;19.890;2023-02-28T16:11:39;2.60;99.90
19692;DHT22;42748;50.016;19.890;2023-02-28T16:14:19;2.50;99.90
19692;DHT22;42748;50.016;19.890;2023-02-28T16:16:50;2.40;99.90
19692;DHT22;42748;50.016;19.890;2023-02-28T16:19:19;2.40;99.90
19692;DHT22;42748;50.016;19.890;2023-02-28T16:21:46;2.30;99.90
19692;DHT22;42748;50.016;19.890;2023-02-28T16:24:13;2.20;99.90
19692;DHT22;42748;50.016;19.890;2023-02-28T16:26:41;2.20;99.90
19692;DHT22;42748;50.016;19.890;2023-02-28T16:29:17;2.10;99.90
19692;DHT22;42748;50.016;19.890;2023-02-28T16:31:46;2.00;99.90
19692;DHT22;42748;50.016;19.890;2023-02-28T16:34:13;2.00;99.90
19692;DHT22;42748;50.016;19.890;2023-02-28T16:36:40;2.00;99.90
19692;DHT22;42748;50.016;19.890;2023-02-28T16:39:07;1.90;99.90
19692;DHT22;42748;50.016;19.890;2023-02-28T16:41:34;1.90;99.90
19692;DHT22;42748;50.016;19.890;2023-02-28T16:44:02;1.90;99.90
19692;DHT22;42748;50.016;19.890;2023-02-28T16:46:36;1.80;99.90
19692;DHT22;42748;50.016;19.890;2023-02-28T16:49:03;1.90;99.90
19692;DHT22;42748;50.016;19.890;2023-02-28T16:51:30;1.80;99.90
19692;DHT22;42748;50.016;19.890;2023-02-28T16:54:00;1.80;99.90
19692;DHT22;42748;50.016;19.890;2023-02-28T16:56:28;1.80;99.90
19692;DHT22;42748;50.016;19.890;2023-02-28T16:58:59;1.80;99.90
19692;DHT22;42748;50.016;19.890;2023-02-28T17:01:26;1.80;99.90
19692;DHT22;42748;50.016;19.890;2023-02-28T17:03:55;1.80;99.90
19692;DHT22;42748;50.016;19.890;2023-02-28T17:06:24;1.70;99.90
19692;DHT22;42748;50.016;19.890;2023-02-28T17:08:52;1.70;99.90
19692;DHT22;42748;50.016;19.890;2023-02-28T17:11:20;1.70;99.90
19692;DHT22;42748;50.016;19.890;2023-02-28T17:13:47;1.70;99.90
19692;DHT22;42748;50.016;19.890;2023-02-28T17:16:30;1.70;99.90
19692;DHT22;42748;50.016;19.890;2023-02-28T17:19:00;1.70;99.90
19692;DHT22;42748;50.016;19.890;2023-02-28T17:21:28;1.60;99.90
19692;DHT22;42748;50.016;19.890;2023-02-28T17:23:55;1.60;99.90
19692;DHT22;42748;50.016;19.890;2023-02-28T17:26:23;1.60;99.90
19692;DHT22;42748;50.016;19.890;2023-02-28T17:28:55;1.50;99.90
19692;DHT22;42748;50.016;19.890;2023-02-28T17:31:27;1.50;99.90
19692;DHT22;42748;50.016;19.890;2023-02-28T17:33:54;1.50;99.90
19692;DHT22;42748;50.016;19.890;2023-02-28T17:36:24;1.50;99.90
19692;DHT22;42748;50.016;19.890;2023-02-28T17:38:53;1.50;99.90
19692;DHT22;42748;50.016;19.890;2023-02-28T17:41:22;1.40;99.90
19692;DHT22;42748;50.016;19.890;2023-02-28T17:43:49;1.40;99.90
19692;DHT22;42748;50.016;19.890;2023-02-28T17:46:22;1.40;99.90
19692;DHT22;42748;50.016;19.890;2023-02-28T17:48:52;1.40;99.90
19692;DHT22;42748;50.016;19.890;2023-02-28T17:51:21;1.30;99.90
19692;DHT22;42748;50.016;19.890;2023-02-28T17:53:48;1.30;99.90
19692;DHT22;42748;50.016;19.890;2023-02-28T17:56:21;1.30;99.90
19692;DHT22;42748;50.016;19.890;2023-02-28T17:58:51;1.30;99.90
19692;DHT22;42748;50.016;19.890;2023-02-28T18:01:19;1.30;99.90
19692;DHT22;42748;50.016;19.890;2023-02-28T18:03:47;1.30;99.90
19692;DHT22;42748;50.016;19.890;2023-02-28T18:06:20;1.30;99.90
19692;DHT22;42748;50.016;19.890;2023-02-28T18:08:47;1.20;99.90
19692;DHT22;42748;50.016;19.890;2023-02-28T18:11:15;1.20;99.90
19692;DHT22;42748;50.016;19.890;2023-02-28T18:13:53;1.20;99.90
19692;DHT22;42748;50.016;19.890;2023-02-28T18:16:21;1.20;99.90
19692;DHT22;42748;50.016;19.890;2023-02-28T18:18:48;1.20;99.90
19692;DHT22;42748;50.016;19.890;2023-02-28T18:21:16;1.20;99.90